sensor_id;sensor_type;location;lat;lon;timestamp;P1;durP1;ratioP1;P2;durP2;ratioP2
47772;SDS011;33534;51.028;13.716;2023-07-24T00:01:17;4.38;;;3.40;;
47772;SDS011;33534;51.028;13.716;2023-07-24T00:03:43;4.93;;;3.40;;
47772;SDS011;33534;51.028;13.716;2023-07-24T00:06:09;4.68;;;3.22;;
47772;SDS011;33534;51.028;13.716;2023-07-24T00:08:36;4.00;;;3.40;;
47772;SDS011;33534;51.028;13.716;2023-07-24T00:11:02;4.13;;;3.33;;
47772;SDS011;33534;51.028;13.716;2023-07-24T00:13:30;3.35;;;2.92;;
47772;SDS011;33534;51.028;13.716;2023-07-24T00:15:57;4.53;;;3.63;;
47772;SDS011;33534;51.028;13.716;2023-07-24T00:18:23;3.55;;;2.72;;
47772;SDS011;33534;51.028;13.716;2023-07-24T00:20:52;3.97;;;3.15;;
47772;SDS011;33534;51.028;13.716;2023-07-24T00:23:18;7.43;;;3.95;;
47772;SDS011;33534;51.028;13.716;2023-07-24T00:25:46;3.83;;;3.30;;
47772;SDS011;33534;51.028;13.716;2023-07-24T00:28:15;4.05;;;3.33;;
47772;SDS011;33534;51.028;13.716;2023-07-24T00:30:44;3.85;;;3.20;;
47772;SDS011;33534;51.028;13.716;2023-07-24T00:33:12;5.05;;;3.35;;
47772;SDS011;33534;51.028;13.716;2023-07-24T00:35:38;3.90;;;2.92;;
47772;SDS011;33534;51.028;13.716;2023-07-24T00:38:05;4.63;;;3.38;;
47772;SDS011;33534;51.028;13.716;2023-07-24T00:40:31;4.88;;;2.85;;
47772;SDS011;33534;51.028;13.716;2023-07-24T00:42:59;3.63;;;2.80;;
47772;SDS011;33534;51.028;13.716;2023-07-24T00:45:25;3.80;;;3.40;;
47772;SDS011;33534;51.028;13.716;2023-07-24T00:47:52;4.28;;;2.97;;
47772;SDS011;33534;51.028;13.716;2023-07-24T00:50:18;5.07;;;3.08;;
47772;SDS011;33534;51.028;13.716;2023-07-24T00:52:56;5.03;;;3.65;;
47772;SDS011;33534;51.028;13.716;2023-07-24T00:55:22;4.30;;;3.30;;
47772;SDS011;33534;51.028;13.716;2023-07-24T00:57:48;4.30;;;3.38;;
47772;SDS011;33534;51.028;13.716;2023-07-24T01:00:15;4.55;;;3.17;;
47772;SDS011;33534;51.028;13.716;2023-07-24T01:02:44;7.47;;;3.45;;
47772;SDS011;33534;51.028;13.716;2023-07-24T01:05:15;4.18;;;3.15;;
47772;SDS011;33534;51.028;13.716;2023-07-24T01:07:42;4.55;;;3.60;;
47772;SDS011;33534;51.028;13.716;2023-07-24T01:10:08;3.63;;;3.20;;
47772;SDS011;33534;51.028;13.716;2023-07-24T01:15:19;5.10;;;3.80;;
47772;SDS011;33534;51.028;13.716;2023-07-24T01:17:48;4.50;;;3.30;;
47772;SDS011;33534;51.028;13.716;2023-07-24T01:20:15;3.83;;;3.30;;
47772;SDS011;33534;51.028;13.716;2023-07-24T01:25:30;3.50;;;3.08;;
47772;SDS011;33534;51.028;13.716;2023-07-24T01:27:57;5.20;;;3.72;;
47772;SDS011;33534;51.028;13.716;2023-07-24T01:30:25;7.43;;;3.70;;
47772;SDS011;33534;51.028;13.716;2023-07-24T01:32:54;6.55;;;3.83;;
47772;SDS011;33534;51.028;13.716;2023-07-24T01:35:20;3.97;;;2.83;;
47772;SDS011;33534;51.028;13.716;2023-07-24T01:37:47;3.22;;;2.92;;
47772;SDS011;33534;51.028;13.716;2023-07-24T01:40:13;3.72;;;3.33;;
47772;SDS011;33534;51.028;13.716;2023-07-24T01:42:40;4.22;;;3.30;;
47772;SDS011;33534;51.028;13.716;2023-07-24T01:45:07;3.40;;;2.97;;
47772;SDS011;33534;51.028;13.716;2023-07-24T01:47:33;3.47;;;3.17;;
47772;SDS011;33534;51.028;13.716;2023-07-24T01:50:06;5.50;;;3.90;;
47772;SDS011;33534;51.028;13.716;2023-07-24T01:52:32;4.50;;;3.47;;
47772;SDS011;33534;51.028;13.716;2023-07-24T01:54:58;9.32;;;3.80;;
47772;SDS011;33534;51.028;13.716;2023-07-24T01:57:26;6.60;;;3.28;;
47772;SDS011;33534;51.028;13.716;2023-07-24T01:59:52;4.97;;;3.63;;
47772;SDS011;33534;51.028;13.716;2023-07-24T02:02:19;5.40;;;3.80;;
47772;SDS011;33534;51.028;13.716;2023-07-24T02:04:45;4.38;;;3.60;;
47772;SDS011;33534;51.028;13.716;2023-07-24T02:07:13;3.97;;;3.47;;
47772;SDS011;33534;51.028;13.716;2023-07-24T02:09:39;5.05;;;3.30;;
47772;SDS011;33534;51.028;13.716;2023-07-24T02:12:05;4.30;;;3.60;;
47772;SDS011;33534;51.028;13.716;2023-07-24T02:14:34;3.65;;;2.95;;
47772;SDS011;33534;51.028;13.716;2023-07-24T02:17:05;3.47;;;3.17;;
47772;SDS011;33534;51.028;13.716;2023-07-24T02:19:34;3.60;;;3.30;;
47772;SDS011;33534;51.028;13.716;2023-07-24T02:22:02;4.05;;;3.00;;
47772;SDS011;33534;51.028;13.716;2023-07-24T02:24:29;4.60;;;3.42;;
47772;SDS011;33534;51.028;13.716;2023-07-24T02:26:57;5.03;;;3.50;;
47772;SDS011;33534;51.028;13.716;2023-07-24T02:29:23;7.03;;;3.88;;
47772;SDS011;33534;51.028;13.716;2023-07-24T02:31:52;6.00;;;3.80;;
47772;SDS011;33534;51.028;13.716;2023-07-24T02:34:21;5.38;;;3.72;;
47772;SDS011;33534;51.028;13.716;2023-07-24T02:36:53;7.97;;;3.58;;
47772;SDS011;33534;51.028;13.716;2023-07-24T02:39:19;5.75;;;3.85;;
47772;SDS011;33534;51.028;13.716;2023-07-24T02:41:48;5.15;;;3.17;;
47772;SDS011;33534;51.028;13.716;2023-07-24T02:44:14;4.78;;;2.97;;
47772;SDS011;33534;51.028;13.716;2023-07-24T02:46:40;3.60;;;3.30;;
47772;SDS011;33534;51.028;13.716;2023-07-24T02:49:11;9.10;;;4.00;;
47772;SDS011;33534;51.028;13.716;2023-07-24T02:51:40;5.47;;;3.67;;
47772;SDS011;33534;51.028;13.716;2023-07-24T02:54:06;4.25;;;3.10;;
47772;SDS011;33534;51.028;13.716;2023-07-24T02:56:32;4.32;;;3.42;;
47772;SDS011;33534;51.028;13.716;2023-07-24T02:59:00;3.40;;;2.90;;
47772;SDS011;33534;51.028;13.716;2023-07-24T03:01:29;8.38;;;3.63;;
47772;SDS011;33534;51.028;13.716;2023-07-24T03:03:57;6.28;;;3.75;;
47772;SDS011;33534;51.028;13.716;2023-07-24T03:06:26;4.60;;;3.55;;
47772;SDS011;33534;51.028;13.716;2023-07-24T03:08:52;9.38;;;7.32;;
47772;SDS011;33534;51.028;13.716;2023-07-24T03:11:18;4.80;;;3.20;;
47772;SDS011;33534;51.028;13.716;2023-07-24T03:13:44;4.40;;;3.95;;
47772;SDS011;33534;51.028;13.716;2023-07-24T03:16:11;8.52;;;5.00;;
47772;SDS011;33534;51.028;13.716;2023-07-24T03:18:37;3.97;;;3.20;;
47772;SDS011;33534;51.028;13.716;2023-07-24T03:21:03;5.10;;;3.38;;
47772;SDS011;33534;51.028;13.716;2023-07-24T03:23:29;6.05;;;3.80;;
47772;SDS011;33534;51.028;13.716;2023-07-24T03:25:58;5.55;;;4.07;;
47772;SDS011;33534;51.028;13.716;2023-07-24T03:28:26;4.88;;;3.60;;
47772;SDS011;33534;51.028;13.716;2023-07-24T03:30:52;5.50;;;3.97;;
47772;SDS011;33534;51.028;13.716;2023-07-24T03:33:19;5.25;;;3.55;;
47772;SDS011;33534;51.028;13.716;2023-07-24T03:35:54;4.40;;;3.50;;
47772;SDS011;33534;51.028;13.716;2023-07-24T03:38:20;4.97;;;3.30;;
47772;SDS011;33534;51.028;13.716;2023-07-24T03:40:52;4.80;;;3.58;;
47772;SDS011;33534;51.028;13.716;2023-07-24T03:48:16;5.28;;;3.95;;
47772;SDS011;33534;51.028;13.716;2023-07-24T03:50:45;4.65;;;3.22;;
47772;SDS011;33534;51.028;13.716;2023-07-24T03:53:14;4.40;;;3.50;;
47772;SDS011;33534;51.028;13.716;2023-07-24T03:55:40;4.45;;;3.78;;
47772;SDS011;33534;51.028;13.716;2023-07-24T03:58:09;6.57;;;4.20;;
47772;SDS011;33534;51.028;13.716;2023-07-24T04:00:38;4.40;;;3.70;;
47772;SDS011;33534;51.028;13.716;2023-07-24T04:03:07;6.00;;;3.28;;
47772;SDS011;33534;51.028;13.716;2023-07-24T04:05:34;5.47;;;3.78;;
47772;SDS011;33534;51.028;13.716;2023-07-24T04:08:02;6.07;;;3.80;;
47772;SDS011;33534;51.028;13.716;2023-07-24T04:10:28;9.55;;;3.72;;
47772;SDS011;33534;51.028;13.716;2023-07-24T04:12:56;4.80;;;3.33;;
47772;SDS011;33534;51.028;13.716;2023-07-24T04:15:22;5.00;;;3.60;;
47772;SDS011;33534;51.028;13.716;2023-07-24T04:17:51;4.55;;;3.50;;
47772;SDS011;33534;51.028;13.716;2023-07-24T04:20:20;4.18;;;3.25;;
47772;SDS011;33534;51.028;13.716;2023-07-24T04:22:51;7.38;;;3.67;;
47772;SDS011;33534;51.028;13.716;2023-07-24T04:25:29;6.00;;;3.88;;
47772;SDS011;33534;51.028;13.716;2023-07-24T04:28:06;5.25;;;3.63;;
47772;SDS011;33534;51.028;13.716;2023-07-24T04:30:34;9.15;;;3.58;;
47772;SDS011;33534;51.028;13.716;2023-07-24T04:33:03;6.15;;;3.35;;
47772;SDS011;33534;51.028;13.716;2023-07-24T04:35:29;6.15;;;4.07;;
47772;SDS011;33534;51.028;13.716;2023-07-24T04:37:58;8.85;;;4.45;;
47772;SDS011;33534;51.028;13.716;2023-07-24T04:42:58;5.03;;;3.67;;
47772;SDS011;33534;51.028;13.716;2023-07-24T04:45:28;7.05;;;3.80;;
47772;SDS011;33534;51.028;13.716;2023-07-24T04:47:54;4.50;;;3.17;;
47772;SDS011;33534;51.028;13.716;2023-07-24T04:50:20;5.45;;;4.20;;
47772;SDS011;33534;51.028;13.716;2023-07-24T04:52:46;5.43;;;3.95;;
47772;SDS011;33534;51.028;13.716;2023-07-24T04:55:12;5.13;;;4.10;;
47772;SDS011;33534;51.028;13.716;2023-07-24T04:57:38;5.38;;;3.85;;
47772;SDS011;33534;51.028;13.716;2023-07-24T05:00:04;7.50;;;3.95;;
47772;SDS011;33534;51.028;13.716;2023-07-24T05:02:30;8.60;;;3.75;;
47772;SDS011;33534;51.028;13.716;2023-07-24T05:04:56;6.40;;;3.95;;
47772;SDS011;33534;51.028;13.716;2023-07-24T05:07:22;8.05;;;4.32;;
47772;SDS011;33534;51.028;13.716;2023-07-24T05:09:48;6.90;;;3.72;;
47772;SDS011;33534;51.028;13.716;2023-07-24T05:12:15;3.58;;;3.28;;
47772;SDS011;33534;51.028;13.716;2023-07-24T05:14:41;4.07;;;3.33;;
47772;SDS011;33534;51.028;13.716;2023-07-24T05:17:07;5.43;;;3.35;;
47772;SDS011;33534;51.028;13.716;2023-07-24T05:19:33;3.92;;;3.28;;
47772;SDS011;33534;51.028;13.716;2023-07-24T05:21:59;8.02;;;3.67;;
47772;SDS011;33534;51.028;13.716;2023-07-24T05:24:25;4.35;;;3.90;;
47772;SDS011;33534;51.028;13.716;2023-07-24T05:26:51;6.18;;;4.10;;
47772;SDS011;33534;51.028;13.716;2023-07-24T05:29:17;5.55;;;3.53;;
47772;SDS011;33534;51.028;13.716;2023-07-24T05:31:43;4.10;;;3.70;;
47772;SDS011;33534;51.028;13.716;2023-07-24T05:34:09;5.90;;;3.40;;
47772;SDS011;33534;51.028;13.716;2023-07-24T05:36:35;4.63;;;3.80;;
47772;SDS011;33534;51.028;13.716;2023-07-24T05:39:01;4.18;;;3.50;;
47772;SDS011;33534;51.028;13.716;2023-07-24T05:41:27;5.05;;;3.67;;
47772;SDS011;33534;51.028;13.716;2023-07-24T05:44:11;4.72;;;3.58;;
47772;SDS011;33534;51.028;13.716;2023-07-24T05:46:37;6.20;;;3.88;;
47772;SDS011;33534;51.028;13.716;2023-07-24T05:49:03;7.43;;;3.90;;
47772;SDS011;33534;51.028;13.716;2023-07-24T05:51:29;5.43;;;4.05;;
47772;SDS011;33534;51.028;13.716;2023-07-24T05:53:55;8.02;;;4.20;;
47772;SDS011;33534;51.028;13.716;2023-07-24T05:56:21;6.57;;;4.43;;
47772;SDS011;33534;51.028;13.716;2023-07-24T05:58:47;4.82;;;4.00;;
47772;SDS011;33534;51.028;13.716;2023-07-24T06:01:13;4.80;;;3.97;;
47772;SDS011;33534;51.028;13.716;2023-07-24T06:03:39;6.90;;;3.78;;
47772;SDS011;33534;51.028;13.716;2023-07-24T06:06:06;6.40;;;4.20;;
47772;SDS011;33534;51.028;13.716;2023-07-24T06:08:32;6.22;;;4.50;;
47772;SDS011;33534;51.028;13.716;2023-07-24T06:10:58;6.43;;;4.53;;
47772;SDS011;33534;51.028;13.716;2023-07-24T06:13:24;5.00;;;3.83;;
47772;SDS011;33534;51.028;13.716;2023-07-24T06:15:51;4.95;;;3.67;;
47772;SDS011;33534;51.028;13.716;2023-07-24T06:18:17;6.05;;;3.88;;
47772;SDS011;33534;51.028;13.716;2023-07-24T06:20:43;5.68;;;4.05;;
47772;SDS011;33534;51.028;13.716;2023-07-24T06:23:10;5.85;;;3.92;;
47772;SDS011;33534;51.028;13.716;2023-07-24T06:25:36;5.38;;;3.85;;
47772;SDS011;33534;51.028;13.716;2023-07-24T06:28:02;5.10;;;4.43;;
47772;SDS011;33534;51.028;13.716;2023-07-24T06:30:28;5.57;;;3.75;;
47772;SDS011;33534;51.028;13.716;2023-07-24T06:32:54;7.40;;;4.30;;
47772;SDS011;33534;51.028;13.716;2023-07-24T06:35:20;5.68;;;3.80;;
47772;SDS011;33534;51.028;13.716;2023-07-24T06:37:46;6.60;;;4.30;;
47772;SDS011;33534;51.028;13.716;2023-07-24T06:40:12;5.22;;;3.95;;
47772;SDS011;33534;51.028;13.716;2023-07-24T06:42:38;10.63;;;5.03;;
47772;SDS011;33534;51.028;13.716;2023-07-24T06:45:04;6.65;;;4.82;;
47772;SDS011;33534;51.028;13.716;2023-07-24T06:47:31;7.45;;;4.50;;
47772;SDS011;33534;51.028;13.716;2023-07-24T06:49:57;6.90;;;4.43;;
47772;SDS011;33534;51.028;13.716;2023-07-24T06:52:23;6.68;;;4.03;;
47772;SDS011;33534;51.028;13.716;2023-07-24T06:54:49;6.70;;;4.53;;
47772;SDS011;33534;51.028;13.716;2023-07-24T06:57:15;6.63;;;3.85;;
47772;SDS011;33534;51.028;13.716;2023-07-24T06:59:41;7.40;;;4.30;;
47772;SDS011;33534;51.028;13.716;2023-07-24T07:02:07;6.35;;;4.15;;
47772;SDS011;33534;51.028;13.716;2023-07-24T07:04:33;9.73;;;5.00;;
47772;SDS011;33534;51.028;13.716;2023-07-24T07:06:59;4.80;;;4.30;;
47772;SDS011;33534;51.028;13.716;2023-07-24T07:09:25;6.28;;;4.22;;
47772;SDS011;33534;51.028;13.716;2023-07-24T07:11:51;6.20;;;4.05;;
47772;SDS011;33534;51.028;13.716;2023-07-24T07:14:17;4.90;;;3.97;;
47772;SDS011;33534;51.028;13.716;2023-07-24T07:16:43;5.47;;;4.20;;
47772;SDS011;33534;51.028;13.716;2023-07-24T07:19:09;5.25;;;3.60;;
47772;SDS011;33534;51.028;13.716;2023-07-24T07:21:35;4.68;;;4.18;;
47772;SDS011;33534;51.028;13.716;2023-07-24T07:24:01;5.25;;;4.07;;
47772;SDS011;33534;51.028;13.716;2023-07-24T07:26:27;6.13;;;4.43;;
47772;SDS011;33534;51.028;13.716;2023-07-24T07:28:54;5.22;;;4.72;;
47772;SDS011;33534;51.028;13.716;2023-07-24T07:31:21;5.20;;;4.13;;
47772;SDS011;33534;51.028;13.716;2023-07-24T07:33:47;4.97;;;4.20;;
47772;SDS011;33534;51.028;13.716;2023-07-24T07:36:13;5.72;;;3.97;;
47772;SDS011;33534;51.028;13.716;2023-07-24T07:38:39;5.70;;;4.07;;
47772;SDS011;33534;51.028;13.716;2023-07-24T07:41:06;5.85;;;4.03;;
47772;SDS011;33534;51.028;13.716;2023-07-24T07:43:32;4.55;;;4.13;;
47772;SDS011;33534;51.028;13.716;2023-07-24T07:45:59;5.03;;;4.40;;
47772;SDS011;33534;51.028;13.716;2023-07-24T07:48:25;5.35;;;4.10;;
47772;SDS011;33534;51.028;13.716;2023-07-24T07:50:51;6.80;;;3.83;;
47772;SDS011;33534;51.028;13.716;2023-07-24T07:53:18;4.80;;;4.30;;
47772;SDS011;33534;51.028;13.716;2023-07-24T07:55:44;3.88;;;3.50;;
47772;SDS011;33534;51.028;13.716;2023-07-24T07:58:10;4.32;;;3.90;;
47772;SDS011;33534;51.028;13.716;2023-07-24T08:00:36;5.57;;;4.47;;
47772;SDS011;33534;51.028;13.716;2023-07-24T08:03:04;5.72;;;4.10;;
47772;SDS011;33534;51.028;13.716;2023-07-24T08:05:30;5.10;;;4.22;;
47772;SDS011;33534;51.028;13.716;2023-07-24T08:07:57;5.47;;;4.05;;
47772;SDS011;33534;51.028;13.716;2023-07-24T08:10:23;4.22;;;3.78;;
47772;SDS011;33534;51.028;13.716;2023-07-24T08:12:49;4.70;;;4.30;;
47772;SDS011;33534;51.028;13.716;2023-07-24T08:15:15;5.60;;;4.13;;
47772;SDS011;33534;51.028;13.716;2023-07-24T08:17:41;4.05;;;3.75;;
47772;SDS011;33534;51.028;13.716;2023-07-24T08:20:07;4.65;;;3.45;;
47772;SDS011;33534;51.028;13.716;2023-07-24T08:22:33;5.70;;;4.05;;
47772;SDS011;33534;51.028;13.716;2023-07-24T08:25:00;6.57;;;3.72;;
47772;SDS011;33534;51.028;13.716;2023-07-24T08:27:26;4.22;;;3.83;;
47772;SDS011;33534;51.028;13.716;2023-07-24T08:29:54;4.78;;;3.95;;
47772;SDS011;33534;51.028;13.716;2023-07-24T08:32:20;5.40;;;4.32;;
47772;SDS011;33534;51.028;13.716;2023-07-24T08:34:46;4.50;;;4.10;;
47772;SDS011;33534;51.028;13.716;2023-07-24T08:37:12;4.45;;;3.85;;
47772;SDS011;33534;51.028;13.716;2023-07-24T08:39:38;4.75;;;4.25;;
47772;SDS011;33534;51.028;13.716;2023-07-24T08:42:08;6.40;;;3.78;;
47772;SDS011;33534;51.028;13.716;2023-07-24T08:47:00;4.45;;;4.05;;
47772;SDS011;33534;51.028;13.716;2023-07-24T08:49:27;4.72;;;4.22;;
47772;SDS011;33534;51.028;13.716;2023-07-24T08:51:55;4.25;;;3.85;;
47772;SDS011;33534;51.028;13.716;2023-07-24T08:54:22;5.70;;;4.47;;
47772;SDS011;33534;51.028;13.716;2023-07-24T08:56:50;5.43;;;4.38;;
47772;SDS011;33534;51.028;13.716;2023-07-24T08:59:17;6.05;;;4.65;;
47772;SDS011;33534;51.028;13.716;2023-07-24T09:01:43;6.30;;;4.43;;
47772;SDS011;33534;51.028;13.716;2023-07-24T09:04:09;4.85;;;4.30;;
47772;SDS011;33534;51.028;13.716;2023-07-24T09:06:35;4.28;;;3.88;;
47772;SDS011;33534;51.028;13.716;2023-07-24T09:09:01;5.63;;;4.18;;
47772;SDS011;33534;51.028;13.716;2023-07-24T09:11:28;7.07;;;4.70;;
47772;SDS011;33534;51.028;13.716;2023-07-24T09:13:54;5.70;;;4.75;;
47772;SDS011;33534;51.028;13.716;2023-07-24T09:16:20;5.32;;;4.25;;
47772;SDS011;33534;51.028;13.716;2023-07-24T09:18:47;5.65;;;4.43;;
47772;SDS011;33534;51.028;13.716;2023-07-24T09:21:13;6.63;;;4.22;;
47772;SDS011;33534;51.028;13.716;2023-07-24T09:23:39;5.07;;;4.20;;
47772;SDS011;33534;51.028;13.716;2023-07-24T09:26:08;5.57;;;4.00;;
47772;SDS011;33534;51.028;13.716;2023-07-24T09:28:35;5.60;;;4.70;;
47772;SDS011;33534;51.028;13.716;2023-07-24T09:31:01;7.43;;;5.18;;
47772;SDS011;33534;51.028;13.716;2023-07-24T09:36:08;9.68;;;6.72;;
47772;SDS011;33534;51.028;13.716;2023-07-24T09:38:35;8.15;;;5.97;;
47772;SDS011;33534;51.028;13.716;2023-07-24T09:41:02;7.40;;;6.43;;
47772;SDS011;33534;51.028;13.716;2023-07-24T09:43:29;9.25;;;6.13;;
47772;SDS011;33534;51.028;13.716;2023-07-24T09:45:55;6.53;;;5.82;;
47772;SDS011;33534;51.028;13.716;2023-07-24T09:48:22;7.07;;;5.88;;
47772;SDS011;33534;51.028;13.716;2023-07-24T09:50:52;8.65;;;5.95;;
47772;SDS011;33534;51.028;13.716;2023-07-24T09:53:21;9.20;;;6.15;;
47772;SDS011;33534;51.028;13.716;2023-07-24T09:58:16;6.35;;;5.50;;
47772;SDS011;33534;51.028;13.716;2023-07-24T10:00:43;6.13;;;5.20;;
47772;SDS011;33534;51.028;13.716;2023-07-24T10:03:10;6.28;;;5.40;;
47772;SDS011;33534;51.028;13.716;2023-07-24T10:05:36;8.23;;;5.70;;
47772;SDS011;33534;51.028;13.716;2023-07-24T10:08:02;6.70;;;5.57;;
47772;SDS011;33534;51.028;13.716;2023-07-24T10:10:28;7.05;;;5.50;;
47772;SDS011;33534;51.028;13.716;2023-07-24T10:12:57;8.23;;;5.68;;
47772;SDS011;33534;51.028;13.716;2023-07-24T10:15:23;7.53;;;5.50;;
47772;SDS011;33534;51.028;13.716;2023-07-24T10:17:50;10.50;;;5.30;;
47772;SDS011;33534;51.028;13.716;2023-07-24T10:20:37;8.87;;;5.40;;
47772;SDS011;33534;51.028;13.716;2023-07-24T10:23:08;7.78;;;5.53;;
47772;SDS011;33534;51.028;13.716;2023-07-24T10:25:36;5.70;;;5.03;;
47772;SDS011;33534;51.028;13.716;2023-07-24T10:28:09;6.35;;;5.10;;
47772;SDS011;33534;51.028;13.716;2023-07-24T10:30:40;6.97;;;5.30;;
47772;SDS011;33534;51.028;13.716;2023-07-24T10:33:13;7.47;;;5.53;;
47772;SDS011;33534;51.028;13.716;2023-07-24T10:35:43;8.90;;;5.57;;
47772;SDS011;33534;51.028;13.716;2023-07-24T10:38:11;11.38;;;6.15;;
47772;SDS011;33534;51.028;13.716;2023-07-24T10:40:39;10.13;;;6.03;;
47772;SDS011;33534;51.028;13.716;2023-07-24T10:43:09;7.72;;;6.22;;
47772;SDS011;33534;51.028;13.716;2023-07-24T10:48:05;14.88;;;13.07;;
47772;SDS011;33534;51.028;13.716;2023-07-24T10:50:37;15.55;;;11.43;;
47772;SDS011;33534;51.028;13.716;2023-07-24T10:53:03;15.43;;;12.20;;
47772;SDS011;33534;51.028;13.716;2023-07-24T10:55:29;16.45;;;11.38;;
47772;SDS011;33534;51.028;13.716;2023-07-24T10:58:08;9.27;;;6.47;;
47772;SDS011;33534;51.028;13.716;2023-07-24T11:00:34;9.02;;;5.82;;
47772;SDS011;33534;51.028;13.716;2023-07-24T11:03:00;8.48;;;6.22;;
47772;SDS011;33534;51.028;13.716;2023-07-24T11:05:26;9.55;;;6.15;;
47772;SDS011;33534;51.028;13.716;2023-07-24T11:07:53;8.27;;;5.85;;
47772;SDS011;33534;51.028;13.716;2023-07-24T11:10:20;10.50;;;6.20;;
47772;SDS011;33534;51.028;13.716;2023-07-24T11:12:46;9.05;;;6.63;;
47772;SDS011;33534;51.028;13.716;2023-07-24T11:15:13;7.15;;;5.72;;
47772;SDS011;33534;51.028;13.716;2023-07-24T11:17:40;7.35;;;6.20;;
47772;SDS011;33534;51.028;13.716;2023-07-24T11:22:33;11.05;;;5.88;;
47772;SDS011;33534;51.028;13.716;2023-07-24T11:27:37;9.38;;;6.80;;
47772;SDS011;33534;51.028;13.716;2023-07-24T11:30:03;10.50;;;7.05;;
47772;SDS011;33534;51.028;13.716;2023-07-24T11:32:29;9.43;;;6.45;;
47772;SDS011;33534;51.028;13.716;2023-07-24T11:34:55;8.82;;;6.15;;
47772;SDS011;33534;51.028;13.716;2023-07-24T11:37:22;12.65;;;6.40;;
47772;SDS011;33534;51.028;13.716;2023-07-24T11:39:55;10.02;;;6.85;;
47772;SDS011;33534;51.028;13.716;2023-07-24T11:42:21;9.75;;;6.57;;
47772;SDS011;33534;51.028;13.716;2023-07-24T11:44:47;12.80;;;6.72;;
47772;SDS011;33534;51.028;13.716;2023-07-24T11:47:13;11.70;;;6.20;;
47772;SDS011;33534;51.028;13.716;2023-07-24T11:49:39;7.43;;;6.00;;
47772;SDS011;33534;51.028;13.716;2023-07-24T11:52:12;7.97;;;6.53;;
47772;SDS011;33534;51.028;13.716;2023-07-24T11:54:38;11.55;;;6.15;;
47772;SDS011;33534;51.028;13.716;2023-07-24T11:57:14;9.25;;;6.20;;
47772;SDS011;33534;51.028;13.716;2023-07-24T11:59:41;9.00;;;6.40;;
47772;SDS011;33534;51.028;13.716;2023-07-24T12:02:09;10.95;;;6.30;;
47772;SDS011;33534;51.028;13.716;2023-07-24T12:04:36;9.77;;;6.20;;
47772;SDS011;33534;51.028;13.716;2023-07-24T12:07:11;10.00;;;6.43;;
47772;SDS011;33534;51.028;13.716;2023-07-24T12:09:37;7.50;;;6.70;;
47772;SDS011;33534;51.028;13.716;2023-07-24T12:12:03;8.45;;;6.55;;
47772;SDS011;33534;51.028;13.716;2023-07-24T12:14:30;8.05;;;6.47;;
47772;SDS011;33534;51.028;13.716;2023-07-24T12:17:00;7.90;;;6.30;;
47772;SDS011;33534;51.028;13.716;2023-07-24T12:19:26;10.15;;;6.55;;
47772;SDS011;33534;51.028;13.716;2023-07-24T12:21:52;12.43;;;6.93;;
47772;SDS011;33534;51.028;13.716;2023-07-24T12:24:19;11.88;;;7.22;;
47772;SDS011;33534;51.028;13.716;2023-07-24T12:26:45;10.95;;;7.32;;
47772;SDS011;33534;51.028;13.716;2023-07-24T12:29:10;9.68;;;7.22;;
47772;SDS011;33534;51.028;13.716;2023-07-24T12:31:36;10.30;;;7.20;;
47772;SDS011;33534;51.028;13.716;2023-07-24T12:34:03;8.82;;;6.85;;
47772;SDS011;33534;51.028;13.716;2023-07-24T12:36:29;11.00;;;7.65;;
47772;SDS011;33534;51.028;13.716;2023-07-24T12:38:55;8.90;;;6.30;;
47772;SDS011;33534;51.028;13.716;2023-07-24T12:41:21;10.15;;;7.38;;
47772;SDS011;33534;51.028;13.716;2023-07-24T12:43:47;17.10;;;7.60;;
47772;SDS011;33534;51.028;13.716;2023-07-24T12:46:13;11.93;;;7.78;;
47772;SDS011;33534;51.028;13.716;2023-07-24T12:48:39;12.15;;;7.22;;
47772;SDS011;33534;51.028;13.716;2023-07-24T12:51:05;9.88;;;8.27;;
47772;SDS011;33534;51.028;13.716;2023-07-24T12:53:31;10.65;;;8.23;;
47772;SDS011;33534;51.028;13.716;2023-07-24T12:55:57;11.50;;;8.40;;
47772;SDS011;33534;51.028;13.716;2023-07-24T12:58:23;9.38;;;6.90;;
47772;SDS011;33534;51.028;13.716;2023-07-24T13:00:49;10.23;;;7.38;;
47772;SDS011;33534;51.028;13.716;2023-07-24T13:03:15;10.40;;;8.20;;
47772;SDS011;33534;51.028;13.716;2023-07-24T13:05:41;12.65;;;7.97;;
47772;SDS011;33534;51.028;13.716;2023-07-24T13:08:07;12.40;;;7.65;;
47772;SDS011;33534;51.028;13.716;2023-07-24T13:10:33;14.93;;;8.65;;
47772;SDS011;33534;51.028;13.716;2023-07-24T13:12:59;12.52;;;8.27;;
47772;SDS011;33534;51.028;13.716;2023-07-24T13:15:26;11.30;;;7.75;;
47772;SDS011;33534;51.028;13.716;2023-07-24T13:17:52;12.63;;;7.47;;
47772;SDS011;33534;51.028;13.716;2023-07-24T13:20:18;12.15;;;8.25;;
47772;SDS011;33534;51.028;13.716;2023-07-24T13:22:44;12.38;;;8.25;;
47772;SDS011;33534;51.028;13.716;2023-07-24T13:25:11;15.25;;;7.80;;
47772;SDS011;33534;51.028;13.716;2023-07-24T13:27:38;13.00;;;7.30;;
47772;SDS011;33534;51.028;13.716;2023-07-24T13:30:04;9.05;;;7.20;;
47772;SDS011;33534;51.028;13.716;2023-07-24T13:32:30;9.90;;;6.75;;
47772;SDS011;33534;51.028;13.716;2023-07-24T13:34:56;10.10;;;6.63;;
47772;SDS011;33534;51.028;13.716;2023-07-24T13:37:22;8.38;;;6.65;;
47772;SDS011;33534;51.028;13.716;2023-07-24T13:39:50;7.72;;;5.45;;
47772;SDS011;33534;51.028;13.716;2023-07-24T13:42:16;8.02;;;5.97;;
47772;SDS011;33534;51.028;13.716;2023-07-24T13:44:42;10.55;;;5.40;;
47772;SDS011;33534;51.028;13.716;2023-07-24T13:47:08;8.35;;;5.60;;
47772;SDS011;33534;51.028;13.716;2023-07-24T13:49:34;6.93;;;5.25;;
47772;SDS011;33534;51.028;13.716;2023-07-24T13:52:00;5.57;;;4.55;;
47772;SDS011;33534;51.028;13.716;2023-07-24T13:54:26;10.50;;;5.30;;
47772;SDS011;33534;51.028;13.716;2023-07-24T13:56:52;6.35;;;4.85;;
47772;SDS011;33534;51.028;13.716;2023-07-24T13:59:18;6.15;;;4.57;;
47772;SDS011;33534;51.028;13.716;2023-07-24T14:01:44;7.50;;;4.70;;
47772;SDS011;33534;51.028;13.716;2023-07-24T14:04:10;7.03;;;4.35;;
47772;SDS011;33534;51.028;13.716;2023-07-24T14:06:37;5.00;;;4.03;;
47772;SDS011;33534;51.028;13.716;2023-07-24T14:09:03;5.60;;;4.07;;
47772;SDS011;33534;51.028;13.716;2023-07-24T14:11:29;5.22;;;3.83;;
47772;SDS011;33534;51.028;13.716;2023-07-24T14:13:55;4.18;;;3.50;;
47772;SDS011;33534;51.028;13.716;2023-07-24T14:16:21;3.95;;;3.50;;
47772;SDS011;33534;51.028;13.716;2023-07-24T14:18:47;4.70;;;3.70;;
47772;SDS011;33534;51.028;13.716;2023-07-24T14:21:13;5.15;;;3.65;;
47772;SDS011;33534;51.028;13.716;2023-07-24T14:23:39;6.00;;;4.03;;
47772;SDS011;33534;51.028;13.716;2023-07-24T14:26:05;4.70;;;3.70;;
47772;SDS011;33534;51.028;13.716;2023-07-24T14:28:31;4.68;;;3.75;;
47772;SDS011;33534;51.028;13.716;2023-07-24T14:30:57;6.30;;;3.70;;
47772;SDS011;33534;51.028;13.716;2023-07-24T14:33:23;5.68;;;4.40;;
47772;SDS011;33534;51.028;13.716;2023-07-24T14:35:50;5.63;;;4.28;;
47772;SDS011;33534;51.028;13.716;2023-07-24T14:38:16;5.95;;;5.05;;
47772;SDS011;33534;51.028;13.716;2023-07-24T14:40:42;5.82;;;5.05;;
47772;SDS011;33534;51.028;13.716;2023-07-24T14:43:08;6.20;;;4.80;;
47772;SDS011;33534;51.028;13.716;2023-07-24T14:45:34;10.07;;;5.90;;
47772;SDS011;33534;51.028;13.716;2023-07-24T14:48:00;5.97;;;5.13;;
47772;SDS011;33534;51.028;13.716;2023-07-24T14:50:26;6.35;;;4.80;;
47772;SDS011;33534;51.028;13.716;2023-07-24T14:52:52;6.72;;;5.38;;
47772;SDS011;33534;51.028;13.716;2023-07-24T14:55:18;5.43;;;4.70;;
47772;SDS011;33534;51.028;13.716;2023-07-24T14:57:44;6.75;;;4.85;;
47772;SDS011;33534;51.028;13.716;2023-07-24T15:00:10;6.28;;;5.20;;